createdAt,value
2017-10-22T12:57:55.192Z,55.53
2017-10-22T13:00:23.161Z,54.56
2017-10-22T13:02:51.094Z,55.16
2017-10-22T13:05:19.017Z,54.54
2017-10-22T13:07:47.325Z,54.10
2017-10-22T13:10:15.251Z,53.25
2017-10-22T13:12:43.185Z,54.10
2017-10-22T13:15:11.093Z,53.42
2017-10-22T13:17:38.996Z,53.85
2017-10-22T13:20:06.933Z,54.12
2017-10-22T13:22:34.857Z,54.62
2017-10-22T13:25:02.773Z,55.12
2017-10-22T13:27:31.187Z,55.19
2017-10-22T13:29:59.092Z,55.83
2017-10-22T13:32:27.035Z,55.42
2017-10-22T13:34:55.035Z,54.98
2017-10-22T13:37:22.949Z,55.05
2017-10-22T13:39:50.856Z,55.51
2017-10-22T13:42:18.808Z,55.36
2017-10-22T13:44:46.764Z,55.98
2017-10-22T13:47:14.672Z,56.04
2017-10-22T13:49:42.605Z,55.91
2017-10-22T13:52:10.545Z,55.99
2017-10-22T13:54:38.857Z,56.59
2017-10-22T13:57:06.871Z,56.87
2017-10-22T13:59:34.776Z,57.29
2017-10-22T14:02:02.689Z,57.84
2017-10-22T14:04:30.626Z,57.85
2017-10-22T14:06:58.649Z,58.00
2017-10-22T14:09:26.569Z,57.99
2017-10-22T14:11:54.500Z,58.15
2017-10-22T14:14:22.816Z,58.48
2017-10-22T14:16:50.815Z,59.01
2017-10-22T14:19:18.751Z,59.52
2017-10-22T14:21:46.786Z,60.04
2017-10-22T14:24:15.100Z,60.44
2017-10-22T14:26:43.049Z,60.61
2017-10-22T14:29:10.963Z,60.77
2017-10-22T14:31:38.945Z,60.81
2017-10-22T14:34:06.901Z,60.92
2017-10-22T14:36:34.820Z,60.78
2017-10-22T14:39:02.759Z,61.25
2017-10-22T14:41:30.736Z,61.11
2017-10-22T14:43:58.657Z,61.46
2017-10-22T14:46:26.615Z,62.10
2017-10-22T14:48:54.553Z,62.20
2017-10-22T14:51:22.865Z,62.23
2017-10-22T14:53:50.772Z,62.51
2017-10-22T14:56:18.751Z,62.99
2017-10-22T14:58:47.085Z,63.51
2017-10-22T15:01:15.011Z,63.76
2017-10-22T15:03:43.349Z,64.19
2017-10-22T15:06:11.260Z,64.32
2017-10-22T15:08:39.563Z,64.00
2017-10-22T15:11:07.517Z,64.59
2017-10-22T15:13:35.428Z,65.00
2017-10-22T15:16:03.349Z,65.13
2017-10-22T15:18:31.381Z,65.11
2017-10-22T15:20:59.309Z,65.13
2017-10-22T15:23:27.222Z,65.66
2017-10-22T15:25:55.888Z,65.98
2017-10-22T15:28:23.804Z,65.59
2017-10-22T15:30:51.717Z,65.95
2017-10-22T15:33:19.662Z,66.51
2017-10-22T15:35:47.668Z,66.46
2017-10-22T15:38:15.596Z,66.56
2017-10-22T15:40:43.530Z,66.37
2017-10-22T15:43:11.859Z,66.55
2017-10-22T15:45:39.854Z,67.10
2017-10-22T15:48:07.929Z,67.09
2017-10-22T15:50:35.839Z,67.24
2017-10-22T15:53:03.794Z,67.73
2017-10-22T15:55:31.742Z,68.26
2017-10-22T15:57:59.651Z,68.45
2017-10-22T16:00:27.595Z,68.62
2017-10-22T16:02:55.932Z,68.48
2017-10-22T16:05:23.923Z,68.48
2017-10-22T16:07:51.861Z,68.77
2017-10-22T16:10:19.849Z,68.62
2017-10-22T16:12:47.770Z,68.96
2017-10-22T16:15:15.789Z,69.16
2017-10-22T16:17:43.748Z,69.04
2017-10-22T16:20:11.726Z,69.25
2017-10-22T16:22:39.640Z,69.29
2017-10-22T16:25:07.582Z,69.37
2017-10-22T16:27:35.890Z,70.04
2017-10-22T16:30:03.801Z,69.88
2017-10-22T16:32:31.781Z,70.06
2017-10-22T16:34:59.690Z,69.84
2017-10-22T16:37:27.717Z,70.24
2017-10-22T16:39:55.666Z,70.41
2017-10-22T16:42:23.572Z,70.68
2017-10-22T16:44:51.934Z,71.40
2017-10-22T16:47:19.868Z,71.31
2017-10-22T16:49:47.924Z,71.53
2017-10-22T16:52:15.866Z,71.94
2017-10-22T16:54:44.181Z,72.24
2017-10-22T16:57:12.124Z,72.43
2017-10-22T16:59:40.056Z,72.94
2017-10-22T17:02:07.971Z,73.01
2017-10-22T17:04:35.885Z,73.31
2017-10-22T17:07:03.805Z,73.05
2017-10-22T17:09:31.749Z,73.29
2017-10-22T17:12:00.062Z,73.58
2017-10-22T17:14:27.974Z,73.77
2017-10-22T17:16:56.306Z,73.59
2017-10-22T17:19:24.213Z,73.98
2017-10-22T17:21:52.132Z,73.74
2017-10-22T17:24:20.052Z,74.02
2017-10-22T17:26:47.962Z,74.13
2017-10-22T17:29:15.987Z,74.18
2017-10-22T17:31:43.892Z,74.29
2017-10-22T17:34:11.837Z,74.72
2017-10-22T17:36:40.141Z,74.72
2017-10-22T17:39:08.050Z,74.96
2017-10-22T17:41:35.955Z,74.82
2017-10-22T17:44:04.262Z,75.12
2017-10-22T17:46:32.196Z,75.34
2017-10-22T17:49:00.101Z,75.55
2017-10-22T17:51:28.007Z,75.64
2017-10-22T17:53:55.925Z,76.42
2017-10-22T17:56:23.857Z,77.27
2017-10-22T17:58:51.781Z,78.96
2017-10-22T18:01:19.690Z,81.18
2017-10-22T18:03:47.649Z,82.12
2017-10-22T18:06:15.565Z,81.53
2017-10-22T18:08:43.472Z,81.89
2017-10-22T18:11:11.407Z,81.94
2017-10-22T18:13:39.420Z,81.80
2017-10-22T18:16:07.403Z,82.48
2017-10-22T18:18:35.332Z,82.28
2017-10-22T18:21:03.249Z,82.11
2017-10-22T18:23:31.194Z,82.19
2017-10-22T18:25:59.104Z,82.10
2017-10-22T18:28:27.406Z,82.30
2017-10-22T18:30:55.317Z,81.98
2017-10-22T18:33:23.229Z,81.77
2017-10-22T18:35:51.148Z,81.30
2017-10-22T18:38:19.065Z,81.56
2017-10-22T18:40:46.969Z,80.62
2017-10-22T18:43:14.896Z,80.72
2017-10-22T18:45:42.809Z,80.21
2017-10-22T18:48:10.946Z,80.32
2017-10-22T18:50:39.001Z,79.94
2017-10-22T18:53:07.602Z,80.12
2017-10-22T18:55:36.697Z,79.86
2017-10-22T18:58:05.691Z,79.40
2017-10-22T19:00:33.684Z,79.44
2017-10-22T19:03:01.596Z,79.52
2017-10-22T19:05:29.898Z,79.89
2017-10-22T19:07:57.808Z,79.58
2017-10-22T19:10:25.713Z,79.45
2017-10-22T19:12:54.035Z,79.31
2017-10-22T19:15:22.029Z,79.85
2017-10-22T19:17:49.946Z,79.81
2017-10-22T19:20:17.872Z,79.23
2017-10-22T19:22:46.207Z,79.37
2017-10-22T19:25:14.581Z,79.29
2017-10-22T19:27:42.955Z,79.31
2017-10-22T19:30:10.929Z,79.36
2017-10-22T19:32:38.848Z,79.32
2017-10-22T19:35:07.062Z,79.73
2017-10-22T19:37:35.056Z,80.16
2017-10-22T19:40:02.972Z,80.10
2017-10-22T19:42:31.295Z,79.93
2017-10-22T19:44:59.216Z,79.68
2017-10-22T19:47:27.518Z,79.62
2017-10-22T19:49:55.905Z,79.84
2017-10-22T19:52:24.020Z,80.03
2017-10-22T19:54:52.256Z,79.62
2017-10-22T19:57:20.226Z,79.91
2017-10-22T19:59:48.136Z,79.48
2017-10-22T20:02:16.132Z,79.49
2017-10-22T20:04:44.433Z,79.90
2017-10-22T20:07:12.348Z,80.03
2017-10-22T20:09:40.374Z,80.28
2017-10-22T20:12:08.501Z,80.52
2017-10-22T20:14:37.653Z,80.58
2017-10-22T20:17:05.569Z,80.58
2017-10-22T20:19:33.483Z,80.54
2017-10-22T20:22:01.554Z,80.57
2017-10-22T20:24:29.457Z,81.28
2017-10-22T20:26:57.392Z,81.30
2017-10-22T20:29:25.308Z,81.18
2017-10-22T20:31:53.229Z,81.73
2017-10-22T20:34:21.261Z,81.83
2017-10-22T20:36:49.564Z,82.56
2017-10-22T20:39:17.500Z,82.63
2017-10-22T20:41:45.416Z,83.00
2017-10-22T20:44:13.423Z,83.46
2017-10-22T20:46:41.339Z,83.65
2017-10-22T20:49:09.283Z,83.92
2017-10-22T20:51:37.664Z,83.87
2017-10-22T20:54:06.016Z,83.92
2017-10-22T20:56:33.992Z,83.34
2017-10-22T20:59:01.906Z,82.85
2017-10-22T21:01:29.848Z,82.98
2017-10-22T21:03:58.193Z,82.99
2017-10-22T21:06:26.108Z,83.40
2017-10-22T21:08:54.065Z,83.75
2017-10-22T21:11:22.381Z,83.52
2017-10-22T21:13:50.310Z,83.11
2017-10-22T21:16:18.632Z,82.76
2017-10-22T21:18:46.540Z,82.76
2017-10-22T21:21:14.593Z,83.03
2017-10-22T21:23:42.517Z,82.94
2017-10-22T21:26:10.449Z,82.83
2017-10-22T21:28:38.805Z,83.05
2017-10-22T21:31:06.720Z,83.23
2017-10-22T21:33:34.640Z,83.29
2017-10-22T21:36:02.574Z,82.95
2017-10-22T21:38:30.497Z,83.17
2017-10-22T21:40:58.728Z,82.58
2017-10-22T21:43:26.640Z,82.39
2017-10-22T21:45:54.557Z,82.20
2017-10-22T21:48:22.490Z,81.75
2017-10-22T21:50:50.793Z,82.20
2017-10-22T21:53:19.640Z,82.56
2017-10-22T21:55:47.557Z,82.34
2017-10-22T21:58:15.477Z,82.24
2017-10-22T22:00:43.389Z,82.40
2017-10-22T22:03:11.301Z,82.93
2017-10-22T22:05:39.246Z,84.66
2017-10-22T22:08:07.161Z,85.32
2017-10-22T22:10:35.519Z,85.79
2017-10-22T22:13:03.437Z,85.16
2017-10-22T22:15:31.357Z,84.98
2017-10-22T22:17:59.285Z,84.98
2017-10-22T22:20:27.206Z,85.98
2017-10-22T22:22:55.528Z,86.89
2017-10-22T22:25:23.572Z,88.13
2017-10-22T22:27:51.504Z,87.98
2017-10-22T22:30:19.481Z,88.90
2017-10-22T22:32:47.389Z,88.39
2017-10-22T22:35:15.411Z,88.30
2017-10-22T22:37:43.748Z,88.30
2017-10-22T22:40:11.665Z,88.08
2017-10-22T22:42:39.601Z,88.20
2017-10-22T22:45:07.517Z,89.22
2017-10-22T22:47:35.819Z,89.52
2017-10-22T22:50:03.745Z,89.32
2017-10-22T22:52:31.720Z,89.16
2017-10-22T22:55:00.035Z,88.88
2017-10-22T22:57:28.105Z,88.90
2017-10-22T22:59:56.133Z,88.06
2017-10-22T23:02:24.098Z,87.82
2017-10-22T23:04:52.019Z,87.38
2017-10-22T23:07:19.949Z,86.97
2017-10-22T23:09:48.257Z,86.67
2017-10-22T23:12:16.281Z,86.27
2017-10-22T23:14:44.184Z,86.26
2017-10-22T23:17:12.104Z,85.98
2017-10-22T23:19:40.028Z,86.12
2017-10-22T23:22:07.940Z,85.73
2017-10-22T23:24:35.857Z,85.87
2017-10-22T23:27:03.798Z,85.50
2017-10-22T23:29:31.714Z,85.39
2017-10-22T23:31:59.721Z,85.44
2017-10-22T23:34:27.636Z,85.53
2017-10-22T23:36:55.556Z,85.27
2017-10-22T23:39:23.465Z,85.17
2017-10-22T23:41:51.381Z,84.81
2017-10-22T23:44:19.293Z,84.54
2017-10-22T23:46:47.610Z,84.34
2017-10-22T23:49:15.609Z,84.15
2017-10-22T23:51:43.533Z,84.54
2017-10-22T23:54:11.544Z,84.83
2017-10-22T23:56:39.468Z,84.67
2017-10-22T23:59:07.371Z,84.52
